createdAt,value
2022-09-06T00:00:02.103Z,85.78
2022-09-06T00:01:02.093Z,86.08
2022-09-06T00:02:02.079Z,86.29
2022-09-06T00:03:02.176Z,86.49
2022-09-06T00:04:02.166Z,86.73
2022-09-06T00:05:02.041Z,87.45
2022-09-06T00:06:02.022Z,87.45
2022-09-06T00:07:02.012Z,87.34
2022-09-06T00:08:02.018Z,87.54
2022-09-06T00:09:01.984Z,87.95
2022-09-06T00:10:01.979Z,88.20
2022-09-06T00:11:01.967Z,87.99
2022-09-06T00:12:01.975Z,88.09
2022-09-06T00:13:01.946Z,88.20
2022-09-06T00:14:01.925Z,87.69
2022-09-06T00:15:01.907Z,87.99
2022-09-06T00:16:01.935Z,87.99
2022-09-06T00:17:01.880Z,87.28
2022-09-06T00:18:01.868Z,87.45
2022-09-06T00:19:02.039Z,87.14
2022-09-06T00:20:01.853Z,87.34
2022-09-06T00:21:01.830Z,87.95
2022-09-06T00:22:01.837Z,87.85
2022-09-06T00:23:01.801Z,87.85
2022-09-06T00:24:01.806Z,87.54
2022-09-06T00:25:01.781Z,87.54
2022-09-06T00:26:01.755Z,87.45
2022-09-06T00:27:01.750Z,87.34
2022-09-06T00:28:01.730Z,87.65
2022-09-06T00:29:01.839Z,87.85
2022-09-06T00:30:01.708Z,87.54
2022-09-06T00:31:01.787Z,87.79
2022-09-06T00:32:01.696Z,87.34
2022-09-06T00:33:01.662Z,87.74
2022-09-06T00:34:01.651Z,87.14
2022-09-06T00:35:01.676Z,87.04
2022-09-06T00:36:01.633Z,86.94
2022-09-06T00:37:01.628Z,86.53
2022-09-06T00:38:01.638Z,86.22
2022-09-06T00:39:01.599Z,86.13
2022-09-06T00:40:01.712Z,86.63
2022-09-06T00:41:01.575Z,86.63
2022-09-06T00:42:01.563Z,86.63
2022-09-06T00:43:01.551Z,86.63
2022-09-06T00:44:01.561Z,86.73
2022-09-06T00:45:01.526Z,86.73
2022-09-06T00:46:01.589Z,86.83
2022-09-06T00:47:01.568Z,86.63
2022-09-06T00:48:01.479Z,86.43
2022-09-06T00:49:01.466Z,86.73
2022-09-06T00:50:01.449Z,86.88
2022-09-06T00:51:01.441Z,86.98
2022-09-06T00:52:01.443Z,86.88
2022-09-06T00:53:01.412Z,87.18
2022-09-06T00:54:01.423Z,86.98
2022-09-06T00:55:01.384Z,86.77
2022-09-06T00:56:01.371Z,86.98
2022-09-06T00:57:01.357Z,86.68
2022-09-06T00:58:01.353Z,87.48
2022-09-06T00:59:01.369Z,87.48
2022-09-06T01:00:01.320Z,87.69
2022-09-06T01:01:01.308Z,87.79
2022-09-06T01:02:01.461Z,87.69
2022-09-06T01:03:01.271Z,87.48
2022-09-06T01:04:01.259Z,87.79
2022-09-06T01:05:01.260Z,87.83
2022-09-06T01:06:01.243Z,88.13
2022-09-06T01:07:01.252Z,87.83
2022-09-06T01:08:01.205Z,87.52
2022-09-06T01:09:01.227Z,87.18
2022-09-06T01:10:01.177Z,87.08
2022-09-06T01:11:01.199Z,87.08
2022-09-06T01:12:01.149Z,87.38
2022-09-06T01:13:01.149Z,86.88
2022-09-06T01:14:01.182Z,87.28
2022-09-06T01:15:01.122Z,87.52
2022-09-06T01:16:01.218Z,87.83
2022-09-06T01:17:01.097Z,88.03
2022-09-06T01:18:01.078Z,87.93
2022-09-06T01:19:01.062Z,88.03
2022-09-06T01:20:01.062Z,88.03
2022-09-06T01:21:01.027Z,88.34
2022-09-06T01:22:01.017Z,87.83
2022-09-06T01:23:01.001Z,87.52
2022-09-06T01:24:01.059Z,88.34
2022-09-06T01:25:00.996Z,88.34
2022-09-06T01:26:00.955Z,88.34
2022-09-06T01:27:00.949Z,88.34
2022-09-06T01:28:00.934Z,88.03
2022-09-06T01:29:00.921Z,88.23
2022-09-06T01:30:00.927Z,88.23
2022-09-06T01:31:00.933Z,88.23
2022-09-06T01:32:00.906Z,88.44
2022-09-06T01:33:00.869Z,88.34
2022-09-06T01:34:00.850Z,88.34
2022-09-06T01:35:00.870Z,88.23
2022-09-06T01:36:00.851Z,88.34
2022-09-06T01:37:09.920Z,88.34
2022-09-06T01:38:00.807Z,88.03
2022-09-06T01:39:00.792Z,87.83
2022-09-06T01:40:00.810Z,87.93
2022-09-06T01:41:00.806Z,87.83
2022-09-06T01:42:00.739Z,87.63
2022-09-06T01:43:00.770Z,87.63
2022-09-06T01:44:00.719Z,87.52
2022-09-06T01:45:00.708Z,87.43
2022-09-06T01:46:00.730Z,87.52
2022-09-06T01:47:00.699Z,87.73
2022-09-06T01:48:00.663Z,87.93
2022-09-06T01:49:00.650Z,88.13
2022-09-06T01:50:00.637Z,87.83
2022-09-06T01:51:00.624Z,87.83
2022-09-06T01:52:00.636Z,87.73
2022-09-06T01:53:00.607Z,87.73
2022-09-06T01:54:00.581Z,87.83
2022-09-06T01:55:00.621Z,88.13
2022-09-06T01:56:00.558Z,88.13
2022-09-06T01:57:00.578Z,87.73
2022-09-06T01:58:00.535Z,87.63
2022-09-06T01:59:00.547Z,87.32
2022-09-06T02:00:00.508Z,87.12
2022-09-06T02:01:00.498Z,88.03
2022-09-06T02:02:00.478Z,88.34
2022-09-06T02:03:00.499Z,88.13
2022-09-06T02:04:00.454Z,87.83
2022-09-06T02:05:00.439Z,87.87
2022-09-06T02:06:00.449Z,87.67
2022-09-06T02:07:00.420Z,87.77
2022-09-06T02:08:00.441Z,87.67
2022-09-06T02:09:00.384Z,87.57
2022-09-06T02:10:00.370Z,87.87
2022-09-06T02:11:00.410Z,87.77
2022-09-06T02:12:00.348Z,88.18
2022-09-06T02:13:00.363Z,88.38
2022-09-06T02:14:00.315Z,88.99
2022-09-06T02:15:00.332Z,88.99
2022-09-06T02:16:00.287Z,89.59
2022-09-06T02:17:00.345Z,89.09
2022-09-06T02:18:00.308Z,89.09
2022-09-06T02:19:00.248Z,88.89
2022-09-06T02:20:00.244Z,88.78
2022-09-06T02:21:00.234Z,88.78
2022-09-06T02:22:00.204Z,88.78
2022-09-06T02:23:00.230Z,88.89
2022-09-06T02:24:00.181Z,88.89
2022-09-06T02:25:00.191Z,89.19
2022-09-06T02:26:00.156Z,89.19
2022-09-06T02:27:00.167Z,89.70
2022-09-06T02:28:00.153Z,89.90
2022-09-06T02:29:00.114Z,89.50
2022-09-06T02:30:00.128Z,89.39
2022-09-06T02:31:00.270Z,89.35
2022-09-06T02:32:00.092Z,88.64
2022-09-06T02:33:00.102Z,88.84
2022-09-06T02:34:00.077Z,89.15
2022-09-06T02:35:00.045Z,89.09
2022-09-06T02:36:00.027Z,88.89
2022-09-06T02:37:00.010Z,88.78
2022-09-06T02:38:00.001Z,88.84
2022-09-06T02:39:00.004Z,88.58
2022-09-06T02:40:00.034Z,88.54
2022-09-06T02:40:59.978Z,88.44
2022-09-06T02:41:59.976Z,88.64
2022-09-06T02:42:59.931Z,88.68
2022-09-06T02:43:59.919Z,88.58
2022-09-06T02:44:59.904Z,88.58
2022-09-06T02:45:59.984Z,88.28
2022-09-06T02:46:59.910Z,88.28
2022-09-06T02:47:59.871Z,88.89
2022-09-06T02:48:59.851Z,89.39
2022-09-06T02:49:59.847Z,89.29
2022-09-06T02:50:59.820Z,88.89
2022-09-06T02:51:59.849Z,89.09
2022-09-06T02:52:59.802Z,88.89
2022-09-06T02:53:59.792Z,88.99
2022-09-06T02:54:59.803Z,89.09
2022-09-06T02:55:59.753Z,89.29
2022-09-06T02:56:59.758Z,89.19
2022-09-06T02:57:59.735Z,88.99
2022-09-06T02:58:59.722Z,89.64
2022-09-06T02:59:59.736Z,89.33
2022-09-06T03:00:59.740Z,89.33
2022-09-06T03:01:59.711Z,89.33
2022-09-06T03:02:59.666Z,89.54
2022-09-06T03:03:59.662Z,89.23
2022-09-06T03:04:59.666Z,89.54
2022-09-06T03:05:59.636Z,89.13
2022-09-06T03:06:59.631Z,89.43
2022-09-06T03:07:59.595Z,89.64
2022-09-06T03:08:59.586Z,89.54
2022-09-06T03:09:59.614Z,89.43
2022-09-06T03:10:59.595Z,88.93
2022-09-06T03:11:59.574Z,89.03
2022-09-06T03:12:59.537Z,89.23
2022-09-06T03:13:59.518Z,89.43
2022-09-06T03:14:59.508Z,89.13
2022-09-06T03:15:59.499Z,89.33
2022-09-06T03:16:59.582Z,89.33
2022-09-06T03:17:59.479Z,89.33
2022-09-06T03:18:59.447Z,89.33
2022-09-06T03:19:59.441Z,89.74
2022-09-06T03:20:59.423Z,89.94
2022-09-06T03:21:59.431Z,89.84
2022-09-06T03:22:59.421Z,89.54
2022-09-06T03:23:59.402Z,89.64
2022-09-06T03:24:59.369Z,89.54
2022-09-06T03:25:59.354Z,89.74
2022-09-06T03:26:59.342Z,90.14
2022-09-06T03:27:59.358Z,89.94
2022-09-06T03:28:59.319Z,90.45
2022-09-06T03:29:59.304Z,90.49
2022-09-06T03:30:59.330Z,90.14
2022-09-06T03:31:59.300Z,89.94
2022-09-06T03:33:02.546Z,89.74
2022-09-06T03:33:59.256Z,89.84
2022-09-06T03:34:59.240Z,89.74
2022-09-06T03:35:59.222Z,89.23
2022-09-06T03:36:59.249Z,89.33
2022-09-06T03:37:59.200Z,89.74
2022-09-06T03:38:59.178Z,89.94
2022-09-06T03:39:59.263Z,89.84
2022-09-06T03:40:59.167Z,89.58
2022-09-06T03:41:59.163Z,89.33
2022-09-06T03:42:59.165Z,89.33
2022-09-06T03:43:59.115Z,89.88
2022-09-06T03:44:59.105Z,89.68
2022-09-06T03:45:59.172Z,89.98
2022-09-06T03:46:59.110Z,89.68
2022-09-06T03:47:59.092Z,90.09
2022-09-06T03:48:59.043Z,89.98
2022-09-06T03:49:59.039Z,89.78
2022-09-06T03:50:59.043Z,89.68
2022-09-06T03:51:59.021Z,89.58
2022-09-06T03:52:59.023Z,90.09
2022-09-06T03:53:58.993Z,89.88
2022-09-06T03:54:58.973Z,89.78
2022-09-06T03:55:58.961Z,89.68
2022-09-06T03:56:58.946Z,90.09
2022-09-06T03:57:58.931Z,90.29
2022-09-06T03:58:58.938Z,90.29
2022-09-06T03:59:58.908Z,90.80
2022-09-06T04:00:58.932Z,90.70
2022-09-06T04:01:58.903Z,90.64
2022-09-06T04:03:01.718Z,90.44
2022-09-06T04:03:58.871Z,90.33
2022-09-06T04:04:58.834Z,90.09
2022-09-06T04:05:58.869Z,89.98
2022-09-06T04:06:58.812Z,90.29
2022-09-06T04:07:58.801Z,90.49
2022-09-06T04:08:58.815Z,90.33
2022-09-06T04:09:58.772Z,90.03
2022-09-06T04:10:58.757Z,90.13
2022-09-06T04:11:58.749Z,90.23
2022-09-06T04:12:58.732Z,90.33
2022-09-06T04:13:58.749Z,90.44
2022-09-06T04:14:58.703Z,90.23
2022-09-06T04:15:58.690Z,90.64
2022-09-06T04:16:58.741Z,90.84
2022-09-06T04:17:58.668Z,90.64
2022-09-06T04:18:58.679Z,90.64
2022-09-06T04:19:58.648Z,90.94
2022-09-06T04:20:58.623Z,91.25
2022-09-06T04:21:58.637Z,91.45
2022-09-06T04:22:58.593Z,91.14
2022-09-06T04:23:58.714Z,91.25
2022-09-06T04:24:58.576Z,91.35
2022-09-06T04:25:58.555Z,91.05
2022-09-06T04:26:58.544Z,91.35
2022-09-06T04:27:58.534Z,91.65
2022-09-06T04:28:58.514Z,91.65
2022-09-06T04:29:58.529Z,93.18
2022-09-06T04:31:03.320Z,92.87
2022-09-06T04:31:58.547Z,91.45
2022-09-06T04:32:58.504Z,90.84
2022-09-06T04:33:58.475Z,90.44
2022-09-06T04:34:58.443Z,91.14
2022-09-06T04:35:58.422Z,90.33
2022-09-06T04:36:58.426Z,90.33
2022-09-06T04:37:58.403Z,91.14
2022-09-06T04:38:58.378Z,90.39
2022-09-06T04:39:58.428Z,90.33
2022-09-06T04:40:58.440Z,90.23
2022-09-06T04:41:58.341Z,91.14
2022-09-06T04:42:58.358Z,90.94
2022-09-06T04:43:58.323Z,90.19
2022-09-06T04:44:58.393Z,90.84
2022-09-06T04:45:58.359Z,91.96
2022-09-06T04:46:58.275Z,91.51
2022-09-06T04:47:58.296Z,91.91
2022-09-06T04:48:58.256Z,91.10
2022-09-06T04:49:58.239Z,90.70
2022-09-06T04:50:58.219Z,90.90
2022-09-06T04:51:58.212Z,90.19
2022-09-06T04:52:58.198Z,89.98
2022-09-06T04:53:58.204Z,90.49
2022-09-06T04:54:58.169Z,90.19
2022-09-06T04:55:58.181Z,89.88
2022-09-06T04:56:58.138Z,89.58
2022-09-06T04:57:58.126Z,89.98
2022-09-06T04:58:58.195Z,89.98
2022-09-06T04:59:58.106Z,90.19
2022-09-06T05:00:58.183Z,89.88
2022-09-06T05:01:58.117Z,90.19
2022-09-06T05:02:58.087Z,90.09
2022-09-06T05:03:58.053Z,90.49
2022-09-06T05:04:58.034Z,90.94
2022-09-06T05:05:58.046Z,91.25
2022-09-06T05:06:58.007Z,90.94
2022-09-06T05:07:57.995Z,90.84
2022-09-06T05:08:58.010Z,91.14
2022-09-06T05:09:57.966Z,91.05
2022-09-06T05:10:57.968Z,91.05
2022-09-06T05:11:57.941Z,91.25
2022-09-06T05:12:57.966Z,91.25
2022-09-06T05:13:57.992Z,91.25
2022-09-06T05:14:57.891Z,91.55
2022-09-06T05:15:57.908Z,91.82
2022-09-06T05:16:57.936Z,91.82
2022-09-06T05:17:57.884Z,91.51
2022-09-06T05:18:57.844Z,91.41
2022-09-06T05:19:57.828Z,91.20
2022-09-06T05:20:57.817Z,91.30
2022-09-06T05:21:57.815Z,91.30
2022-09-06T05:22:57.819Z,91.30
2022-09-06T05:23:58.790Z,91.20
2022-09-06T05:24:57.772Z,91.41
2022-09-06T05:25:57.778Z,91.41
2022-09-06T05:26:57.736Z,91.20
2022-09-06T05:27:57.737Z,91.41
2022-09-06T05:28:57.771Z,91.30
2022-09-06T05:29:57.719Z,91.30
2022-09-06T05:30:57.702Z,91.41
2022-09-06T05:31:57.758Z,91.30
2022-09-06T05:32:57.719Z,91.20
2022-09-06T05:33:57.681Z,91.00
2022-09-06T05:34:57.643Z,91.51
2022-09-06T05:35:57.615Z,91.67
2022-09-06T05:36:57.597Z,91.67
2022-09-06T05:37:57.591Z,91.67
2022-09-06T05:38:57.604Z,91.36
2022-09-06T05:39:57.695Z,91.47
2022-09-06T05:40:57.543Z,91.36
2022-09-06T05:41:57.551Z,91.56
2022-09-06T05:42:57.582Z,91.67
2022-09-06T05:43:57.534Z,91.47
2022-09-06T05:44:57.503Z,91.47
2022-09-06T05:45:57.538Z,91.83
2022-09-06T05:46:57.462Z,91.42
2022-09-06T05:47:57.482Z,91.32
2022-09-06T05:48:57.433Z,91.32
2022-09-06T05:49:57.432Z,91.42
2022-09-06T05:50:57.408Z,91.52
2022-09-06T05:51:57.432Z,91.52
2022-09-06T05:52:57.385Z,91.52
2022-09-06T05:53:57.399Z,92.03
2022-09-06T05:54:57.365Z,92.03
2022-09-06T05:55:57.344Z,92.03
2022-09-06T05:56:57.338Z,91.78
2022-09-06T05:57:57.347Z,91.89
2022-09-06T05:58:57.308Z,91.68
2022-09-06T05:59:57.308Z,91.89
2022-09-06T06:00:57.295Z,91.58
2022-09-06T06:01:57.384Z,91.17
2022-09-06T06:02:57.301Z,90.73
2022-09-06T06:03:57.307Z,90.73
2022-09-06T06:04:57.333Z,90.62
2022-09-06T06:05:57.220Z,89.37
2022-09-06T06:06:57.213Z,88.31
2022-09-06T06:07:57.189Z,88.51
2022-09-06T06:08:57.207Z,88.51
2022-09-06T06:09:57.155Z,88.17
2022-09-06T06:10:57.167Z,88.17
2022-09-06T06:11:57.135Z,88.37
2022-09-06T06:12:57.140Z,88.37
2022-09-06T06:13:57.115Z,88.48
2022-09-06T06:14:57.120Z,88.17
2022-09-06T06:15:57.097Z,86.27
2022-09-06T06:16:57.179Z,84.33
2022-09-06T06:17:57.089Z,82.19
2022-09-06T06:18:57.039Z,79.56
2022-09-06T06:19:57.036Z,77.03
2022-09-06T06:20:57.013Z,74.15
2022-09-06T06:21:57.071Z,71.47
2022-09-06T06:22:57.007Z,70.69
2022-09-06T06:23:56.981Z,69.62
2022-09-06T06:24:56.987Z,67.99
2022-09-06T06:25:56.944Z,66.72
2022-09-06T06:26:56.959Z,66.05
2022-09-06T06:27:56.911Z,67.59
2022-09-06T06:28:56.930Z,67.35
2022-09-06T06:29:56.909Z,68.65
2022-09-06T06:30:56.888Z,70.39
2022-09-06T06:31:56.934Z,71.33
2022-09-06T06:32:56.848Z,72.27
2022-09-06T06:33:56.837Z,73.07
2022-09-06T06:34:56.832Z,74.32
2022-09-06T06:35:56.834Z,73.95
2022-09-06T06:36:56.801Z,75.66
2022-09-06T06:37:56.809Z,76.67
2022-09-06T06:38:56.771Z,77.77
2022-09-06T06:39:56.844Z,77.27
2022-09-06T06:41:00.176Z,76.43
2022-09-06T06:41:56.749Z,74.57
2022-09-06T06:42:56.727Z,71.86
2022-09-06T06:43:56.711Z,69.26
2022-09-06T06:44:56.718Z,68.46
2022-09-06T06:45:56.720Z,68.96
2022-09-06T06:46:56.671Z,68.46
2022-09-06T06:47:56.652Z,67.96
2022-09-06T06:48:56.641Z,68.73
2022-09-06T06:49:56.649Z,69.53
2022-09-06T06:50:56.613Z,70.06
2022-09-06T06:51:56.616Z,70.76
2022-09-06T06:52:56.624Z,71.70
2022-09-06T06:53:56.575Z,72.74
2022-09-06T06:54:56.566Z,73.27
2022-09-06T06:55:56.556Z,74.27
2022-09-06T06:56:56.536Z,75.01
2022-09-06T06:57:56.555Z,75.21
2022-09-06T06:58:56.505Z,75.11
2022-09-06T06:59:56.494Z,75.31
2022-09-06T07:00:56.637Z,75.62
2022-09-06T07:01:56.542Z,76.52
2022-09-06T07:02:56.456Z,76.12
2022-09-06T07:03:56.454Z,75.65
2022-09-06T07:04:56.424Z,75.25
2022-09-06T07:06:12.610Z,76.19
2022-09-06T07:07:56.404Z,76.53
2022-09-06T07:08:56.374Z,77.23
2022-09-06T07:10:56.351Z,77.63
2022-09-06T07:11:56.374Z,76.97
2022-09-06T07:12:56.320Z,76.06
2022-09-06T07:13:56.355Z,76.46
2022-09-06T07:14:56.293Z,76.56
2022-09-06T07:15:56.344Z,77.37
2022-09-06T07:16:56.296Z,76.90
2022-09-06T07:17:56.252Z,75.29
2022-09-06T07:18:56.243Z,73.75
2022-09-06T07:21:56.204Z,73.41
2022-09-06T07:22:56.346Z,74.62
2022-09-06T07:24:11.603Z,74.92
2022-09-06T07:24:56.167Z,75.42
2022-09-06T07:25:56.142Z,75.32
2022-09-06T07:27:56.142Z,76.63
2022-09-06T07:28:56.108Z,77.03
2022-09-06T07:29:56.110Z,77.83
2022-09-06T07:30:56.103Z,77.63
2022-09-06T07:32:11.631Z,77.97
2022-09-06T07:32:56.063Z,77.67
2022-09-06T07:33:56.032Z,78.21
2022-09-06T07:34:56.022Z,78.51
2022-09-06T07:35:56.035Z,78.71
2022-09-06T07:36:56.000Z,79.22
2022-09-06T07:37:55.993Z,79.11
2022-09-06T07:38:55.973Z,79.02
2022-09-06T07:39:56.084Z,79.22
2022-09-06T07:40:55.958Z,78.81
2022-09-06T07:41:55.936Z,79.92
2022-09-06T07:42:55.920Z,79.92
2022-09-06T07:43:55.920Z,80.12
2022-09-06T07:44:55.897Z,79.82
2022-09-06T07:45:55.945Z,80.22
2022-09-06T07:47:59.051Z,79.72
2022-09-06T07:48:55.847Z,80.32
2022-09-06T07:50:58.957Z,80.52
2022-09-06T07:51:55.825Z,80.22
2022-09-06T07:53:15.051Z,80.12
2022-09-06T07:54:12.771Z,79.92
2022-09-06T07:54:55.768Z,79.92
2022-09-06T07:55:55.736Z,79.82
2022-09-06T07:56:55.737Z,79.82
2022-09-06T07:57:55.720Z,80.12
2022-09-06T07:58:55.730Z,79.52
2022-09-06T07:59:55.699Z,80.12
2022-09-06T08:00:55.704Z,80.02
2022-09-06T08:01:55.741Z,79.72
2022-09-06T08:02:55.656Z,79.11
2022-09-06T08:03:55.661Z,79.22
2022-09-06T08:04:55.632Z,79.32
2022-09-06T08:06:11.155Z,78.71
2022-09-06T08:09:55.559Z,76.10
2022-09-06T08:10:55.546Z,76.46
2022-09-06T08:11:55.534Z,75.86
2022-09-06T08:12:55.518Z,77.47
2022-09-06T08:13:55.564Z,75.96
2022-09-06T08:14:55.498Z,75.76
2022-09-06T08:15:55.501Z,74.92
2022-09-06T08:16:55.462Z,76.12
2022-09-06T08:17:55.460Z,76.32
2022-09-06T08:18:55.464Z,76.53
2022-09-06T08:19:55.455Z,76.63
2022-09-06T08:20:55.421Z,77.43
2022-09-06T08:21:55.428Z,77.43
2022-09-06T08:22:55.416Z,78.84
2022-09-06T08:23:55.398Z,78.54
2022-09-06T08:24:55.370Z,78.14
2022-09-06T08:25:55.349Z,77.83
2022-09-06T08:26:55.336Z,78.03
2022-09-06T08:27:55.343Z,75.12
2022-09-06T08:28:55.306Z,75.32
2022-09-06T08:29:55.293Z,74.62
2022-09-06T08:30:55.284Z,74.08
2022-09-06T08:31:55.379Z,72.67
2022-09-06T08:32:55.255Z,72.77
2022-09-06T08:33:55.238Z,72.74
2022-09-06T08:34:55.230Z,71.73
2022-09-06T08:35:55.236Z,71.63
2022-09-06T08:36:55.207Z,71.33
2022-09-06T08:37:55.193Z,71.20
2022-09-06T08:38:55.168Z,70.70
2022-09-06T08:39:55.194Z,70.19
2022-09-06T08:40:55.178Z,71.09
2022-09-06T08:41:55.134Z,71.30
2022-09-06T08:42:55.130Z,70.89
2022-09-06T08:44:57.573Z,70.56
2022-09-06T08:45:55.866Z,70.36
2022-09-06T08:46:55.191Z,70.86
2022-09-06T08:47:55.057Z,70.76
2022-09-06T08:48:55.038Z,70.46
2022-09-06T08:49:55.024Z,69.96
2022-09-06T08:50:55.013Z,70.26
2022-09-06T08:51:55.010Z,71.26
2022-09-06T08:53:15.663Z,72.77
2022-09-06T08:53:54.981Z,74.07
2022-09-06T08:54:54.966Z,73.37
2022-09-06T08:55:54.986Z,74.07
2022-09-06T08:56:54.956Z,74.37
2022-09-06T08:57:54.934Z,75.08
2022-09-06T08:58:54.909Z,75.21
2022-09-06T08:59:54.895Z,75.92
2022-09-06T09:00:54.963Z,76.32
2022-09-06T09:01:54.892Z,76.12
2022-09-06T09:02:54.887Z,76.32
2022-09-06T09:03:54.834Z,77.12
2022-09-06T09:04:54.837Z,76.52
2022-09-06T09:05:54.808Z,75.11
2022-09-06T09:06:54.822Z,74.31
2022-09-06T09:07:54.815Z,74.61
2022-09-06T09:08:54.803Z,72.56
2022-09-06T09:09:54.761Z,73.07
2022-09-06T09:10:54.750Z,75.08
2022-09-06T09:11:54.734Z,75.98
2022-09-06T09:12:54.951Z,75.18
2022-09-06T09:13:56.089Z,75.27
2022-09-06T09:14:54.714Z,75.27
2022-09-06T09:15:54.770Z,73.97
2022-09-06T09:16:54.691Z,73.57
2022-09-06T09:17:54.644Z,70.96
2022-09-06T09:18:54.711Z,72.97
2022-09-06T09:19:54.626Z,74.77
2022-09-06T09:20:54.648Z,75.27
2022-09-06T09:21:54.593Z,74.98
2022-09-06T09:22:54.610Z,75.78
2022-09-06T09:23:54.570Z,75.88
2022-09-06T09:24:54.547Z,75.58
2022-09-06T09:25:54.549Z,73.81
2022-09-06T09:26:54.558Z,73.50
2022-09-06T09:27:54.510Z,74.21
2022-09-06T09:28:54.540Z,74.21
2022-09-06T09:30:54.510Z,72.50
2022-09-06T09:31:54.592Z,74.11
2022-09-06T09:32:54.482Z,74.71
2022-09-06T09:33:54.449Z,73.91
2022-09-06T09:34:54.436Z,74.81
2022-09-06T09:35:54.439Z,75.51
2022-09-06T09:37:59.132Z,76.45
2022-09-06T09:38:54.409Z,77.26
2022-09-06T09:39:54.387Z,76.96
2022-09-06T09:40:54.340Z,76.05
2022-09-06T09:41:54.327Z,76.35
2022-09-06T09:42:54.341Z,76.25
2022-09-06T09:43:54.328Z,74.85
2022-09-06T09:44:54.292Z,74.65
2022-09-06T09:45:54.264Z,74.95
2022-09-06T09:46:54.323Z,75.65
2022-09-06T09:47:54.250Z,76.86
2022-09-06T09:48:54.266Z,76.65
2022-09-06T09:49:54.223Z,76.56
2022-09-06T09:50:54.210Z,76.56
2022-09-06T09:51:54.191Z,76.25
2022-09-06T09:52:54.186Z,77.46
2022-09-06T09:53:54.190Z,77.42
2022-09-06T09:54:54.154Z,77.32
2022-09-06T09:55:54.148Z,77.62
2022-09-06T09:56:54.148Z,78.42
2022-09-06T09:57:54.115Z,77.79
2022-09-06T09:58:54.132Z,77.09
2022-09-06T09:59:54.092Z,76.58
2022-09-06T10:00:54.177Z,76.75
2022-09-06T10:01:54.098Z,75.95
2022-09-06T10:02:54.050Z,75.21
2022-09-06T10:04:54.039Z,77.08
2022-09-06T10:05:56.380Z,75.57
2022-09-06T10:07:09.865Z,75.04
2022-09-06T10:07:53.981Z,72.93
2022-09-06T10:08:53.979Z,72.30
2022-09-06T10:09:53.975Z,69.79
2022-09-06T10:10:53.946Z,69.39
2022-09-06T10:11:53.944Z,68.86
2022-09-06T10:12:53.919Z,68.66
2022-09-06T10:13:53.900Z,69.56
2022-09-06T10:14:53.924Z,69.82
2022-09-06T10:15:53.972Z,68.32
2022-09-06T10:16:53.862Z,69.29
2022-09-06T10:17:53.845Z,65.39
2022-09-06T10:18:53.861Z,65.29
2022-09-06T10:19:53.844Z,65.89
2022-09-06T10:20:53.814Z,65.69
2022-09-06T10:21:53.808Z,64.96
2022-09-06T10:22:53.798Z,66.76
2022-09-06T10:24:53.792Z,67.03
2022-09-06T10:25:53.762Z,64.83
2022-09-06T10:26:53.731Z,64.83
2022-09-06T10:28:10.355Z,67.33
2022-09-06T10:28:53.708Z,65.60
2022-09-06T10:29:53.687Z,67.30
2022-09-06T10:30:53.742Z,67.69
2022-09-06T10:31:53.669Z,67.90
2022-09-06T10:32:53.676Z,67.80
2022-09-06T10:33:53.656Z,68.46
2022-09-06T10:34:53.635Z,65.14
2022-09-06T10:35:53.615Z,67.77
2022-09-06T10:36:53.631Z,66.53
2022-09-06T10:37:53.590Z,62.85
2022-09-06T10:38:53.596Z,60.63
2022-09-06T10:39:53.616Z,64.98
2022-09-06T10:40:53.558Z,65.08
2022-09-06T10:41:53.523Z,64.98
2022-09-06T10:42:53.515Z,62.79
2022-09-06T10:43:53.529Z,63.09
2022-09-06T10:44:53.490Z,63.82
2022-09-06T10:45:53.512Z,64.31
2022-09-06T10:46:53.500Z,65.01
2022-09-06T10:47:53.455Z,64.01
2022-09-06T10:48:53.435Z,64.81
2022-09-06T10:49:53.420Z,65.31
2022-09-06T10:50:53.440Z,65.21
2022-09-06T10:51:53.423Z,64.69
2022-09-06T10:52:53.381Z,64.69
2022-09-06T10:53:53.369Z,65.35
2022-09-06T10:54:53.358Z,63.66
2022-09-06T10:55:53.346Z,63.73
2022-09-06T10:56:53.354Z,63.33
2022-09-06T10:59:53.312Z,63.30
2022-09-06T11:00:53.276Z,61.04
2022-09-06T11:01:53.413Z,61.74
2022-09-06T11:03:58.371Z,62.60
2022-09-06T11:05:53.227Z,60.61
2022-09-06T11:06:53.186Z,62.21
2022-09-06T11:08:53.536Z,61.25
2022-09-06T11:09:53.168Z,60.93
2022-09-06T11:10:53.154Z,63.28
2022-09-06T11:11:53.154Z,62.65
2022-09-06T11:12:53.143Z,60.05
2022-09-06T11:13:53.127Z,59.62
2022-09-06T11:14:53.090Z,59.72
2022-09-06T11:15:53.149Z,58.77
2022-09-06T11:16:53.079Z,57.29
2022-09-06T11:17:53.116Z,57.90
2022-09-06T11:18:53.057Z,59.30
2022-09-06T11:19:53.065Z,59.79
2022-09-06T11:20:53.055Z,58.20
2022-09-06T11:21:53.015Z,58.92
2022-09-06T11:22:53.018Z,58.53
2022-09-06T11:23:53.002Z,55.43
2022-09-06T11:24:52.964Z,55.04
2022-09-06T11:25:52.981Z,56.49
2022-09-06T11:26:52.935Z,56.30
2022-09-06T11:27:57.325Z,56.20
2022-09-06T11:28:52.922Z,57.48
2022-09-06T11:29:52.897Z,57.26
2022-09-06T11:30:52.955Z,54.98
2022-09-06T11:32:52.872Z,55.40
2022-09-06T11:33:52.873Z,53.12
2022-09-06T11:34:52.831Z,54.41
2022-09-06T11:35:52.829Z,53.45
2022-09-06T11:36:52.801Z,52.78
2022-09-06T11:37:52.825Z,52.29
2022-09-06T11:38:52.804Z,53.11
2022-09-06T11:40:52.764Z,52.54
2022-09-06T11:41:52.746Z,53.53
2022-09-06T11:42:52.751Z,53.53
2022-09-06T11:43:52.722Z,52.96
2022-09-06T11:44:52.722Z,53.65
2022-09-06T11:45:52.708Z,53.85
2022-09-06T11:46:52.798Z,53.63
2022-09-06T11:47:52.678Z,52.71
2022-09-06T11:48:52.649Z,51.57
2022-09-06T11:49:52.663Z,53.33
2022-09-06T11:50:52.655Z,51.64
2022-09-06T11:51:52.627Z,52.31
2022-09-06T11:52:52.599Z,51.30
2022-09-06T11:53:52.610Z,52.75
2022-09-06T11:54:52.601Z,52.46
2022-09-06T11:55:52.561Z,52.14
2022-09-06T11:56:52.538Z,50.34
2022-09-06T11:57:52.546Z,49.45
2022-09-06T11:58:52.537Z,50.83
2022-09-06T11:59:52.541Z,49.26
2022-09-06T12:00:52.504Z,48.39
2022-09-06T12:01:52.490Z,49.99
2022-09-06T12:02:53.224Z,50.51
2022-09-06T12:04:08.520Z,51.92
2022-09-06T12:04:52.465Z,51.82
2022-09-06T12:05:52.440Z,51.92
2022-09-06T12:06:52.449Z,53.59
2022-09-06T12:07:52.424Z,53.81
2022-09-06T12:08:52.386Z,54.21
2022-09-06T12:09:52.390Z,54.02
2022-09-06T12:10:52.406Z,53.52
2022-09-06T12:11:52.349Z,52.83
2022-09-06T12:12:52.342Z,52.70
2022-09-06T12:13:52.363Z,53.86
2022-09-06T12:14:52.331Z,53.57
2022-09-06T12:15:52.383Z,54.16
2022-09-06T12:16:52.314Z,53.25
2022-09-06T12:17:52.300Z,50.68
2022-09-06T12:18:52.265Z,50.59
2022-09-06T12:19:52.256Z,52.53
2022-09-06T12:20:52.243Z,52.14
2022-09-06T12:21:52.231Z,50.95
2022-09-06T12:22:52.225Z,50.26
2022-09-06T12:23:52.227Z,49.57
2022-09-06T12:24:52.184Z,50.95
2022-09-06T12:25:52.177Z,49.30
2022-09-06T12:26:55.731Z,51.30
2022-09-06T12:27:52.171Z,54.16
2022-09-06T12:28:52.220Z,52.98
2022-09-06T12:29:52.135Z,53.57
2022-09-06T12:30:52.214Z,51.00
2022-09-06T12:31:52.213Z,50.19
2022-09-06T12:32:52.117Z,51.47
2022-09-06T12:33:52.089Z,51.67
2022-09-06T12:35:58.348Z,51.57
2022-09-06T12:36:52.215Z,50.98
2022-09-06T12:37:52.024Z,51.47
2022-09-06T12:38:52.037Z,50.09
2022-09-06T12:39:52.026Z,50.09
2022-09-06T12:40:52.006Z,49.90
2022-09-06T12:41:51.996Z,50.88
2022-09-06T12:42:51.959Z,52.06
2022-09-06T12:43:51.949Z,50.38
2022-09-06T12:44:51.963Z,51.74
2022-09-06T12:45:51.924Z,51.54
2022-09-06T12:46:51.986Z,49.87
2022-09-06T12:47:51.902Z,50.44
2022-09-06T12:48:51.888Z,50.34
2022-09-06T12:49:51.865Z,50.83
2022-09-06T12:50:51.857Z,49.16
2022-09-06T12:51:51.875Z,49.26
2022-09-06T12:52:51.841Z,49.06
2022-09-06T12:53:51.843Z,48.35
2022-09-06T12:54:51.789Z,48.76
2022-09-06T12:55:51.800Z,49.95
2022-09-06T12:56:51.776Z,52.68
2022-09-06T12:57:51.759Z,51.40
2022-09-06T12:58:51.778Z,51.89
2022-09-06T12:59:51.747Z,50.90
2022-09-06T13:00:51.759Z,51.86
2022-09-06T13:01:51.897Z,51.76
2022-09-06T13:02:51.856Z,51.84
2022-09-06T13:03:51.719Z,52.23
2022-09-06T13:04:51.677Z,49.55
2022-09-06T13:05:51.696Z,50.04
2022-09-06T13:06:51.650Z,48.37
2022-09-06T13:07:51.647Z,48.49
2022-09-06T13:08:51.650Z,50.85
2022-09-06T13:09:51.609Z,50.85
2022-09-06T13:10:51.604Z,49.18
2022-09-06T13:11:51.602Z,51.42
2022-09-06T13:12:51.603Z,51.00
2022-09-06T13:13:51.564Z,50.42
2022-09-06T13:14:51.554Z,51.20